sensor_id;sensor_type;location;lat;lon;timestamp;P1;durP1;ratioP1;P2;durP2;ratioP2
38130;SDS011;23947;51.894;4.622;2022-12-05T00:00:50;70.57;;;34.03;;
38130;SDS011;23947;51.894;4.622;2022-12-05T00:03:17;67.95;;;32.85;;
38130;SDS011;23947;51.894;4.622;2022-12-05T00:05:42;74.55;;;33.75;;
38130;SDS011;23947;51.894;4.622;2022-12-05T00:08:08;76.15;;;35.42;;
38130;SDS011;23947;51.894;4.622;2022-12-05T00:10:37;74.82;;;33.88;;
38130;SDS011;23947;51.894;4.622;2022-12-05T00:15:29;68.72;;;32.60;;
38130;SDS011;23947;51.894;4.622;2022-12-05T00:17:54;77.10;;;33.80;;
38130;SDS011;23947;51.894;4.622;2022-12-05T00:20:20;71.57;;;33.00;;
38130;SDS011;23947;51.894;4.622;2022-12-05T00:22:46;76.57;;;34.08;;
38130;SDS011;23947;51.894;4.622;2022-12-05T00:25:11;69.03;;;33.45;;
38130;SDS011;23947;51.894;4.622;2022-12-05T00:27:37;69.60;;;34.00;;
38130;SDS011;23947;51.894;4.622;2022-12-05T00:30:03;66.82;;;32.88;;
38130;SDS011;23947;51.894;4.622;2022-12-05T00:32:30;74.43;;;34.17;;
38130;SDS011;23947;51.894;4.622;2022-12-05T00:34:56;71.45;;;32.85;;
38130;SDS011;23947;51.894;4.622;2022-12-05T00:37:22;72.97;;;32.97;;
38130;SDS011;23947;51.894;4.622;2022-12-05T00:39:48;64.97;;;32.33;;
38130;SDS011;23947;51.894;4.622;2022-12-05T00:42:13;67.22;;;33.00;;
38130;SDS011;23947;51.894;4.622;2022-12-05T00:44:39;70.68;;;32.63;;
38130;SDS011;23947;51.894;4.622;2022-12-05T00:47:05;66.53;;;33.55;;
38130;SDS011;23947;51.894;4.622;2022-12-05T00:49:31;63.33;;;32.58;;
38130;SDS011;23947;51.894;4.622;2022-12-05T00:51:56;67.45;;;32.78;;
38130;SDS011;23947;51.894;4.622;2022-12-05T00:54:22;66.53;;;30.55;;
38130;SDS011;23947;51.894;4.622;2022-12-05T00:56:48;67.03;;;31.23;;
38130;SDS011;23947;51.894;4.622;2022-12-05T00:59:17;63.97;;;30.88;;
38130;SDS011;23947;51.894;4.622;2022-12-05T01:01:44;65.43;;;31.70;;
38130;SDS011;23947;51.894;4.622;2022-12-05T01:04:12;66.40;;;30.92;;
38130;SDS011;23947;51.894;4.622;2022-12-05T01:06:48;63.65;;;30.40;;
38130;SDS011;23947;51.894;4.622;2022-12-05T01:09:16;64.15;;;29.83;;
38130;SDS011;23947;51.894;4.622;2022-12-05T01:11:44;64.93;;;31.15;;
38130;SDS011;23947;51.894;4.622;2022-12-05T01:14:11;64.57;;;29.35;;
38130;SDS011;23947;51.894;4.622;2022-12-05T01:16:38;66.93;;;31.02;;
38130;SDS011;23947;51.894;4.622;2022-12-05T01:19:08;59.90;;;29.75;;
38130;SDS011;23947;51.894;4.622;2022-12-05T01:21:37;60.97;;;30.13;;
38130;SDS011;23947;51.894;4.622;2022-12-05T01:24:03;67.88;;;31.70;;
38130;SDS011;23947;51.894;4.622;2022-12-05T01:26:29;66.15;;;31.05;;
38130;SDS011;23947;51.894;4.622;2022-12-05T01:28:54;60.53;;;29.98;;
38130;SDS011;23947;51.894;4.622;2022-12-05T01:31:27;62.95;;;30.70;;
38130;SDS011;23947;51.894;4.622;2022-12-05T01:33:55;63.15;;;29.15;;
38130;SDS011;23947;51.894;4.622;2022-12-05T01:36:22;62.45;;;30.40;;
38130;SDS011;23947;51.894;4.622;2022-12-05T01:38:49;64.35;;;31.30;;
38130;SDS011;23947;51.894;4.622;2022-12-05T01:41:20;63.92;;;30.55;;
38130;SDS011;23947;51.894;4.622;2022-12-05T01:43:51;62.83;;;29.92;;
38130;SDS011;23947;51.894;4.622;2022-12-05T01:46:24;60.17;;;28.98;;
38130;SDS011;23947;51.894;4.622;2022-12-05T01:48:50;59.60;;;28.73;;
38130;SDS011;23947;51.894;4.622;2022-12-05T01:51:22;57.47;;;28.35;;
38130;SDS011;23947;51.894;4.622;2022-12-05T01:53:48;58.88;;;29.15;;
38130;SDS011;23947;51.894;4.622;2022-12-05T01:56:14;67.30;;;30.67;;
38130;SDS011;23947;51.894;4.622;2022-12-05T01:58:41;64.60;;;30.15;;
38130;SDS011;23947;51.894;4.622;2022-12-05T02:01:09;58.28;;;28.02;;
38130;SDS011;23947;51.894;4.622;2022-12-05T02:03:37;60.22;;;29.20;;
38130;SDS011;23947;51.894;4.622;2022-12-05T02:06:05;62.75;;;30.95;;
38130;SDS011;23947;51.894;4.622;2022-12-05T02:08:31;58.92;;;28.67;;
38130;SDS011;23947;51.894;4.622;2022-12-05T02:10:57;59.08;;;29.65;;
38130;SDS011;23947;51.894;4.622;2022-12-05T02:13:44;60.83;;;29.40;;
38130;SDS011;23947;51.894;4.622;2022-12-05T02:28:13;62.08;;;28.42;;
38130;SDS011;23947;51.894;4.622;2022-12-05T02:30:20;58.97;;;27.90;;
38130;SDS011;23947;51.894;4.622;2022-12-05T02:33:08;60.03;;;28.48;;
38130;SDS011;23947;51.894;4.622;2022-12-05T02:46:18;59.80;;;28.95;;
38130;SDS011;23947;51.894;4.622;2022-12-05T02:48:46;60.45;;;29.23;;
38130;SDS011;23947;51.894;4.622;2022-12-05T02:53:43;61.28;;;28.05;;
38130;SDS011;23947;51.894;4.622;2022-12-05T02:56:10;62.03;;;29.17;;
38130;SDS011;23947;51.894;4.622;2022-12-05T02:58:38;62.25;;;29.70;;
38130;SDS011;23947;51.894;4.622;2022-12-05T03:01:11;60.58;;;28.27;;
38130;SDS011;23947;51.894;4.622;2022-12-05T03:03:37;59.65;;;28.23;;
38130;SDS011;23947;51.894;4.622;2022-12-05T03:06:11;59.78;;;29.80;;
38130;SDS011;23947;51.894;4.622;2022-12-05T03:08:45;59.97;;;28.52;;
38130;SDS011;23947;51.894;4.622;2022-12-05T03:11:14;61.97;;;28.30;;
38130;SDS011;23947;51.894;4.622;2022-12-05T03:13:47;59.35;;;29.33;;
38130;SDS011;23947;51.894;4.622;2022-12-05T03:16:25;56.53;;;27.90;;
38130;SDS011;23947;51.894;4.622;2022-12-05T03:22:00;57.95;;;28.13;;
38130;SDS011;23947;51.894;4.622;2022-12-05T03:24:42;61.30;;;28.05;;
38130;SDS011;23947;51.894;4.622;2022-12-05T03:27:14;59.15;;;29.67;;
38130;SDS011;23947;51.894;4.622;2022-12-05T03:34:48;56.08;;;28.10;;
38130;SDS011;23947;51.894;4.622;2022-12-05T03:37:26;55.50;;;28.98;;
38130;SDS011;23947;51.894;4.622;2022-12-05T03:40:04;61.27;;;28.83;;
38130;SDS011;23947;51.894;4.622;2022-12-05T03:42:46;61.65;;;27.70;;
38130;SDS011;23947;51.894;4.622;2022-12-05T03:45:20;59.17;;;27.77;;
38130;SDS011;23947;51.894;4.622;2022-12-05T03:48:13;61.80;;;29.67;;
38130;SDS011;23947;51.894;4.622;2022-12-05T03:50:51;57.17;;;28.20;;
38130;SDS011;23947;51.894;4.622;2022-12-05T03:53:28;59.05;;;28.10;;
38130;SDS011;23947;51.894;4.622;2022-12-05T03:56:09;54.58;;;27.65;;
38130;SDS011;23947;51.894;4.622;2022-12-05T03:58:49;55.30;;;27.88;;
38130;SDS011;23947;51.894;4.622;2022-12-05T04:01:39;58.08;;;28.58;;
38130;SDS011;23947;51.894;4.622;2022-12-05T04:04:09;58.30;;;29.30;;
38130;SDS011;23947;51.894;4.622;2022-12-05T04:06:49;56.80;;;28.15;;
38130;SDS011;23947;51.894;4.622;2022-12-05T04:09:20;53.17;;;28.17;;
38130;SDS011;23947;51.894;4.622;2022-12-05T04:11:51;59.60;;;28.08;;
38130;SDS011;23947;51.894;4.622;2022-12-05T04:14:34;59.40;;;28.90;;
38130;SDS011;23947;51.894;4.622;2022-12-05T04:17:15;61.55;;;28.70;;
38130;SDS011;23947;51.894;4.622;2022-12-05T04:22:40;59.15;;;29.55;;
38130;SDS011;23947;51.894;4.622;2022-12-05T04:25:09;56.03;;;28.40;;
38130;SDS011;23947;51.894;4.622;2022-12-05T04:33:32;56.40;;;27.67;;
38130;SDS011;23947;51.894;4.622;2022-12-05T04:36:27;56.58;;;28.25;;
38130;SDS011;23947;51.894;4.622;2022-12-05T04:39:36;56.33;;;27.77;;
38130;SDS011;23947;51.894;4.622;2022-12-05T04:42:24;62.35;;;29.20;;
38130;SDS011;23947;51.894;4.622;2022-12-05T04:44:52;56.15;;;28.52;;
38130;SDS011;23947;51.894;4.622;2022-12-05T04:47:22;62.42;;;29.75;;
38130;SDS011;23947;51.894;4.622;2022-12-05T04:49:53;64.75;;;28.35;;
38130;SDS011;23947;51.894;4.622;2022-12-05T04:52:19;60.80;;;29.48;;
38130;SDS011;23947;51.894;4.622;2022-12-05T04:54:51;57.22;;;26.98;;
38130;SDS011;23947;51.894;4.622;2022-12-05T04:57:46;59.05;;;28.02;;
38130;SDS011;23947;51.894;4.622;2022-12-05T05:00:25;60.95;;;27.58;;
38130;SDS011;23947;51.894;4.622;2022-12-05T05:03:16;58.70;;;28.93;;
38130;SDS011;23947;51.894;4.622;2022-12-05T05:05:44;58.17;;;27.77;;
38130;SDS011;23947;51.894;4.622;2022-12-05T05:08:19;58.72;;;27.70;;
38130;SDS011;23947;51.894;4.622;2022-12-05T05:11:00;55.03;;;27.58;;
38130;SDS011;23947;51.894;4.622;2022-12-05T05:13:38;59.47;;;27.30;;
38130;SDS011;23947;51.894;4.622;2022-12-05T05:16:04;55.60;;;25.48;;
38130;SDS011;23947;51.894;4.622;2022-12-05T05:18:30;54.63;;;26.48;;
38130;SDS011;23947;51.894;4.622;2022-12-05T05:20:56;60.97;;;29.20;;
38130;SDS011;23947;51.894;4.622;2022-12-05T05:23:22;55.50;;;27.58;;
38130;SDS011;23947;51.894;4.622;2022-12-05T05:25:51;56.60;;;27.45;;
38130;SDS011;23947;51.894;4.622;2022-12-05T05:28:20;57.35;;;27.80;;
38130;SDS011;23947;51.894;4.622;2022-12-05T05:30:47;57.85;;;26.13;;
38130;SDS011;23947;51.894;4.622;2022-12-05T05:33:13;58.22;;;27.65;;
38130;SDS011;23947;51.894;4.622;2022-12-05T05:35:39;64.80;;;27.05;;
38130;SDS011;23947;51.894;4.622;2022-12-05T05:38:04;51.00;;;25.45;;
38130;SDS011;23947;51.894;4.622;2022-12-05T05:40:30;60.13;;;27.40;;
38130;SDS011;23947;51.894;4.622;2022-12-05T05:42:58;61.83;;;26.75;;
38130;SDS011;23947;51.894;4.622;2022-12-05T05:45:24;63.53;;;28.00;;
38130;SDS011;23947;51.894;4.622;2022-12-05T05:47:49;56.75;;;27.10;;
38130;SDS011;23947;51.894;4.622;2022-12-05T05:50:15;59.15;;;26.88;;
38130;SDS011;23947;51.894;4.622;2022-12-05T05:52:41;49.95;;;26.10;;
38130;SDS011;23947;51.894;4.622;2022-12-05T05:55:06;52.35;;;26.15;;
38130;SDS011;23947;51.894;4.622;2022-12-05T05:57:33;54.08;;;25.48;;
38130;SDS011;23947;51.894;4.622;2022-12-05T05:59:59;57.67;;;26.98;;
38130;SDS011;23947;51.894;4.622;2022-12-05T06:02:25;58.55;;;26.88;;
38130;SDS011;23947;51.894;4.622;2022-12-05T06:04:55;54.80;;;26.67;;
38130;SDS011;23947;51.894;4.622;2022-12-05T06:07:20;56.25;;;26.88;;
38130;SDS011;23947;51.894;4.622;2022-12-05T06:09:46;60.85;;;26.67;;
38130;SDS011;23947;51.894;4.622;2022-12-05T06:12:11;54.40;;;26.70;;
38130;SDS011;23947;51.894;4.622;2022-12-05T06:14:37;58.88;;;27.63;;
38130;SDS011;23947;51.894;4.622;2022-12-05T06:17:02;54.65;;;26.23;;
38130;SDS011;23947;51.894;4.622;2022-12-05T06:19:29;55.72;;;26.60;;
38130;SDS011;23947;51.894;4.622;2022-12-05T06:21:54;60.22;;;27.10;;
38130;SDS011;23947;51.894;4.622;2022-12-05T06:24:20;53.70;;;26.17;;
38130;SDS011;23947;51.894;4.622;2022-12-05T06:26:45;58.92;;;27.20;;
38130;SDS011;23947;51.894;4.622;2022-12-05T06:29:11;56.05;;;26.95;;
38130;SDS011;23947;51.894;4.622;2022-12-05T06:31:37;58.33;;;27.63;;
38130;SDS011;23947;51.894;4.622;2022-12-05T06:34:02;62.13;;;27.17;;
38130;SDS011;23947;51.894;4.622;2022-12-05T06:36:28;59.50;;;27.92;;
38130;SDS011;23947;51.894;4.622;2022-12-05T06:38:58;58.22;;;27.80;;
38130;SDS011;23947;51.894;4.622;2022-12-05T06:43:51;56.72;;;27.23;;
38130;SDS011;23947;51.894;4.622;2022-12-05T06:46:22;59.88;;;27.98;;
38130;SDS011;23947;51.894;4.622;2022-12-05T06:48:51;64.03;;;28.48;;
38130;SDS011;23947;51.894;4.622;2022-12-05T06:51:18;63.25;;;29.13;;
38130;SDS011;23947;51.894;4.622;2022-12-05T06:53:44;62.42;;;27.90;;
38130;SDS011;23947;51.894;4.622;2022-12-05T06:56:11;60.67;;;29.20;;
38130;SDS011;23947;51.894;4.622;2022-12-05T06:58:42;53.70;;;26.95;;
38130;SDS011;23947;51.894;4.622;2022-12-05T07:03:57;57.90;;;28.30;;
38130;SDS011;23947;51.894;4.622;2022-12-05T07:06:23;59.28;;;27.70;;
38130;SDS011;23947;51.894;4.622;2022-12-05T07:08:49;61.33;;;28.13;;
38130;SDS011;23947;51.894;4.622;2022-12-05T07:11:15;56.85;;;26.73;;
38130;SDS011;23947;51.894;4.622;2022-12-05T07:13:41;55.22;;;26.80;;
38130;SDS011;23947;51.894;4.622;2022-12-05T07:16:06;78.50;;;35.22;;
38130;SDS011;23947;51.894;4.622;2022-12-05T07:18:32;53.20;;;27.42;;
38130;SDS011;23947;51.894;4.622;2022-12-05T07:20:59;63.70;;;29.55;;
38130;SDS011;23947;51.894;4.622;2022-12-05T07:23:29;60.70;;;27.13;;
38130;SDS011;23947;51.894;4.622;2022-12-05T07:25:54;60.38;;;26.88;;
38130;SDS011;23947;51.894;4.622;2022-12-05T07:28:22;65.80;;;28.80;;
38130;SDS011;23947;51.894;4.622;2022-12-05T07:30:48;55.03;;;25.33;;
38130;SDS011;23947;51.894;4.622;2022-12-05T07:33:22;87.18;;;37.30;;
38130;SDS011;23947;51.894;4.622;2022-12-05T07:35:48;57.58;;;27.40;;
38130;SDS011;23947;51.894;4.622;2022-12-05T07:38:14;58.35;;;27.77;;
38130;SDS011;23947;51.894;4.622;2022-12-05T07:40:39;60.95;;;27.20;;
38130;SDS011;23947;51.894;4.622;2022-12-05T07:43:05;56.25;;;25.90;;
38130;SDS011;23947;51.894;4.622;2022-12-05T07:45:32;64.80;;;29.52;;
38130;SDS011;23947;51.894;4.622;2022-12-05T07:47:58;57.95;;;27.02;;
38130;SDS011;23947;51.894;4.622;2022-12-05T07:50:24;55.83;;;26.30;;
38130;SDS011;23947;51.894;4.622;2022-12-05T07:52:49;59.40;;;27.27;;
38130;SDS011;23947;51.894;4.622;2022-12-05T07:55:15;357.25;;;102.38;;
38130;SDS011;23947;51.894;4.622;2022-12-05T07:57:40;60.85;;;27.88;;
38130;SDS011;23947;51.894;4.622;2022-12-05T08:00:06;64.03;;;31.13;;
38130;SDS011;23947;51.894;4.622;2022-12-05T08:02:32;56.05;;;25.67;;
38130;SDS011;23947;51.894;4.622;2022-12-05T08:04:58;290.95;;;76.85;;
38130;SDS011;23947;51.894;4.622;2022-12-05T08:07:23;53.20;;;25.80;;
38130;SDS011;23947;51.894;4.622;2022-12-05T08:09:49;130.48;;;50.88;;
38130;SDS011;23947;51.894;4.622;2022-12-05T08:12:14;60.47;;;28.45;;
38130;SDS011;23947;51.894;4.622;2022-12-05T08:14:40;53.20;;;25.50;;
38130;SDS011;23947;51.894;4.622;2022-12-05T08:17:05;53.38;;;24.58;;
38130;SDS011;23947;51.894;4.622;2022-12-05T08:19:31;48.15;;;24.00;;
38130;SDS011;23947;51.894;4.622;2022-12-05T08:21:57;44.88;;;22.05;;
38130;SDS011;23947;51.894;4.622;2022-12-05T08:24:22;51.05;;;24.00;;
38130;SDS011;23947;51.894;4.622;2022-12-05T08:26:49;47.80;;;22.67;;
38130;SDS011;23947;51.894;4.622;2022-12-05T08:29:14;54.15;;;23.40;;
38130;SDS011;23947;51.894;4.622;2022-12-05T08:31:44;52.70;;;25.45;;
38130;SDS011;23947;51.894;4.622;2022-12-05T08:34:25;50.22;;;23.27;;
38130;SDS011;23947;51.894;4.622;2022-12-05T08:36:51;142.70;;;63.83;;
38130;SDS011;23947;51.894;4.622;2022-12-05T08:39:17;222.32;;;71.93;;
38130;SDS011;23947;51.894;4.622;2022-12-05T08:41:44;189.90;;;81.85;;
38130;SDS011;23947;51.894;4.622;2022-12-05T08:44:11;43.53;;;22.42;;
38130;SDS011;23947;51.894;4.622;2022-12-05T08:46:40;123.10;;;55.28;;
38130;SDS011;23947;51.894;4.622;2022-12-05T08:49:07;42.60;;;23.27;;
38130;SDS011;23947;51.894;4.622;2022-12-05T08:51:32;53.28;;;23.98;;
38130;SDS011;23947;51.894;4.622;2022-12-05T08:54:00;57.00;;;26.80;;
38130;SDS011;23947;51.894;4.622;2022-12-05T08:56:26;40.63;;;21.20;;
38130;SDS011;23947;51.894;4.622;2022-12-05T08:58:52;41.20;;;20.92;;
38130;SDS011;23947;51.894;4.622;2022-12-05T09:01:18;38.83;;;20.92;;
38130;SDS011;23947;51.894;4.622;2022-12-05T09:03:45;84.78;;;34.03;;
38130;SDS011;23947;51.894;4.622;2022-12-05T09:06:19;42.38;;;21.63;;
38130;SDS011;23947;51.894;4.622;2022-12-05T09:08:46;37.05;;;19.30;;
38130;SDS011;23947;51.894;4.622;2022-12-05T09:13:39;41.35;;;21.67;;
38130;SDS011;23947;51.894;4.622;2022-12-05T09:16:10;36.55;;;19.58;;
38130;SDS011;23947;51.894;4.622;2022-12-05T09:18:37;34.85;;;19.17;;
38130;SDS011;23947;51.894;4.622;2022-12-05T09:21:06;35.03;;;19.15;;
38130;SDS011;23947;51.894;4.622;2022-12-05T09:23:34;38.97;;;22.40;;
38130;SDS011;23947;51.894;4.622;2022-12-05T09:26:00;35.38;;;19.17;;
38130;SDS011;23947;51.894;4.622;2022-12-05T09:28:26;34.20;;;19.60;;
38130;SDS011;23947;51.894;4.622;2022-12-05T09:30:56;31.50;;;17.52;;
38130;SDS011;23947;51.894;4.622;2022-12-05T09:33:30;40.47;;;24.85;;
38130;SDS011;23947;51.894;4.622;2022-12-05T09:35:57;33.63;;;18.77;;
38130;SDS011;23947;51.894;4.622;2022-12-05T09:38:22;35.33;;;18.75;;
38130;SDS011;23947;51.894;4.622;2022-12-05T09:40:50;35.78;;;18.25;;
38130;SDS011;23947;51.894;4.622;2022-12-05T09:43:32;32.00;;;18.42;;
38130;SDS011;23947;51.894;4.622;2022-12-05T09:49:19;38.10;;;23.83;;
38130;SDS011;23947;51.894;4.622;2022-12-05T09:52:24;30.40;;;18.17;;
38130;SDS011;23947;51.894;4.622;2022-12-05T09:54:53;30.40;;;17.73;;
38130;SDS011;23947;51.894;4.622;2022-12-05T09:57:23;28.63;;;18.35;;
38130;SDS011;23947;51.894;4.622;2022-12-05T09:59:58;28.67;;;17.38;;
38130;SDS011;23947;51.894;4.622;2022-12-05T10:06:02;28.88;;;16.25;;
38130;SDS011;23947;51.894;4.622;2022-12-05T10:11:02;29.45;;;16.13;;
38130;SDS011;23947;51.894;4.622;2022-12-05T10:13:47;29.23;;;16.23;;
38130;SDS011;23947;51.894;4.622;2022-12-05T10:16:30;25.77;;;15.38;;
38130;SDS011;23947;51.894;4.622;2022-12-05T10:19:01;28.35;;;15.98;;
38130;SDS011;23947;51.894;4.622;2022-12-05T10:21:32;27.52;;;15.57;;
38130;SDS011;23947;51.894;4.622;2022-12-05T10:24:04;27.65;;;14.23;;
38130;SDS011;23947;51.894;4.622;2022-12-05T10:26:43;23.75;;;14.90;;
38130;SDS011;23947;51.894;4.622;2022-12-05T10:29:22;22.35;;;13.00;;
38130;SDS011;23947;51.894;4.622;2022-12-05T10:31:55;37.63;;;23.52;;
38130;SDS011;23947;51.894;4.622;2022-12-05T10:34:42;21.33;;;13.25;;
38130;SDS011;23947;51.894;4.622;2022-12-05T10:37:10;25.08;;;14.55;;
38130;SDS011;23947;51.894;4.622;2022-12-05T10:39:42;27.02;;;12.70;;
38130;SDS011;23947;51.894;4.622;2022-12-05T10:42:13;20.88;;;12.82;;
38130;SDS011;23947;51.894;4.622;2022-12-05T10:44:41;18.17;;;12.00;;
38130;SDS011;23947;51.894;4.622;2022-12-05T10:47:08;21.13;;;12.75;;
38130;SDS011;23947;51.894;4.622;2022-12-05T10:49:35;21.10;;;12.57;;
38130;SDS011;23947;51.894;4.622;2022-12-05T10:52:02;19.98;;;11.45;;
38130;SDS011;23947;51.894;4.622;2022-12-05T10:54:29;19.40;;;12.20;;
38130;SDS011;23947;51.894;4.622;2022-12-05T10:57:00;18.40;;;11.68;;
38130;SDS011;23947;51.894;4.622;2022-12-05T10:59:39;21.85;;;13.57;;
38130;SDS011;23947;51.894;4.622;2022-12-05T11:02:17;32.20;;;20.05;;
38130;SDS011;23947;51.894;4.622;2022-12-05T11:05:07;17.73;;;10.68;;
38130;SDS011;23947;51.894;4.622;2022-12-05T11:07:44;19.13;;;11.07;;
38130;SDS011;23947;51.894;4.622;2022-12-05T11:10:19;18.55;;;10.88;;
38130;SDS011;23947;51.894;4.622;2022-12-05T11:12:47;17.75;;;10.75;;
38130;SDS011;23947;51.894;4.622;2022-12-05T11:17:46;17.38;;;10.98;;
38130;SDS011;23947;51.894;4.622;2022-12-05T11:22:45;22.48;;;13.35;;
38130;SDS011;23947;51.894;4.622;2022-12-05T11:27:53;16.38;;;10.88;;
38130;SDS011;23947;51.894;4.622;2022-12-05T11:30:20;21.30;;;11.13;;
38130;SDS011;23947;51.894;4.622;2022-12-05T11:32:48;19.02;;;10.98;;
38130;SDS011;23947;51.894;4.622;2022-12-05T11:37:46;17.30;;;10.57;;
38130;SDS011;23947;51.894;4.622;2022-12-05T11:40:29;17.83;;;10.77;;
38130;SDS011;23947;51.894;4.622;2022-12-05T11:45:53;15.80;;;9.52;;
38130;SDS011;23947;51.894;4.622;2022-12-05T12:00:11;14.25;;;8.20;;
38130;SDS011;23947;51.894;4.622;2022-12-05T12:03:13;18.02;;;7.55;;
38130;SDS011;23947;51.894;4.622;2022-12-05T12:12:17;13.40;;;8.02;;
38130;SDS011;23947;51.894;4.622;2022-12-05T12:15:06;14.60;;;7.95;;
38130;SDS011;23947;51.894;4.622;2022-12-05T12:20:29;75.65;;;27.00;;
38130;SDS011;23947;51.894;4.622;2022-12-05T12:25:51;13.68;;;7.43;;
38130;SDS011;23947;51.894;4.622;2022-12-05T12:31:49;13.32;;;7.63;;
38130;SDS011;23947;51.894;4.622;2022-12-05T12:39:51;13.13;;;8.00;;
38130;SDS011;23947;51.894;4.622;2022-12-05T12:42:30;12.32;;;7.70;;
38130;SDS011;23947;51.894;4.622;2022-12-05T12:45:17;13.35;;;7.53;;
38130;SDS011;23947;51.894;4.622;2022-12-05T12:48:02;14.70;;;7.75;;
38130;SDS011;23947;51.894;4.622;2022-12-05T12:50:49;13.18;;;7.13;;
38130;SDS011;23947;51.894;4.622;2022-12-05T12:56:10;14.45;;;7.97;;
38130;SDS011;23947;51.894;4.622;2022-12-05T13:01:49;12.82;;;7.00;;
38130;SDS011;23947;51.894;4.622;2022-12-05T13:04:32;13.07;;;7.47;;
38130;SDS011;23947;51.894;4.622;2022-12-05T13:09:55;13.50;;;7.07;;
38130;SDS011;23947;51.894;4.622;2022-12-05T13:12:30;14.48;;;6.82;;
38130;SDS011;23947;51.894;4.622;2022-12-05T13:15:02;11.88;;;6.78;;
38130;SDS011;23947;51.894;4.622;2022-12-05T13:17:34;16.80;;;7.40;;
38130;SDS011;23947;51.894;4.622;2022-12-05T13:20:03;16.80;;;6.87;;
38130;SDS011;23947;51.894;4.622;2022-12-05T13:22:29;15.80;;;6.63;;
38130;SDS011;23947;51.894;4.622;2022-12-05T13:24:55;16.50;;;7.15;;
38130;SDS011;23947;51.894;4.622;2022-12-05T13:27:22;19.35;;;9.20;;
38130;SDS011;23947;51.894;4.622;2022-12-05T13:29:59;28.70;;;13.48;;
38130;SDS011;23947;51.894;4.622;2022-12-05T13:32:28;16.48;;;7.57;;
38130;SDS011;23947;51.894;4.622;2022-12-05T13:37:31;26.27;;;11.07;;
38130;SDS011;23947;51.894;4.622;2022-12-05T13:40:32;16.67;;;7.57;;
38130;SDS011;23947;51.894;4.622;2022-12-05T13:43:23;12.35;;;6.45;;
38130;SDS011;23947;51.894;4.622;2022-12-05T13:48:22;16.98;;;7.13;;
38130;SDS011;23947;51.894;4.622;2022-12-05T13:50:52;17.83;;;7.47;;
38130;SDS011;23947;51.894;4.622;2022-12-05T13:53:27;19.50;;;8.43;;
38130;SDS011;23947;51.894;4.622;2022-12-05T13:58:43;106.72;;;40.40;;
38130;SDS011;23947;51.894;4.622;2022-12-05T14:03:56;19.40;;;7.70;;
38130;SDS011;23947;51.894;4.622;2022-12-05T14:09:02;20.55;;;7.70;;
38130;SDS011;23947;51.894;4.622;2022-12-05T14:11:28;20.02;;;7.78;;
38130;SDS011;23947;51.894;4.622;2022-12-05T14:13:54;17.92;;;8.73;;
38130;SDS011;23947;51.894;4.622;2022-12-05T14:21:45;18.48;;;8.93;;
38130;SDS011;23947;51.894;4.622;2022-12-05T14:24:57;19.35;;;8.07;;
38130;SDS011;23947;51.894;4.622;2022-12-05T14:27:50;19.58;;;9.40;;
38130;SDS011;23947;51.894;4.622;2022-12-05T14:30:34;19.23;;;9.73;;
38130;SDS011;23947;51.894;4.622;2022-12-05T14:33:24;18.40;;;7.85;;
38130;SDS011;23947;51.894;4.622;2022-12-05T14:35:51;22.88;;;10.48;;
38130;SDS011;23947;51.894;4.622;2022-12-05T14:38:27;15.77;;;7.43;;
38130;SDS011;23947;51.894;4.622;2022-12-05T14:40:55;20.17;;;7.75;;
38130;SDS011;23947;51.894;4.622;2022-12-05T14:43:34;18.58;;;7.13;;
38130;SDS011;23947;51.894;4.622;2022-12-05T14:48:32;20.23;;;9.23;;
38130;SDS011;23947;51.894;4.622;2022-12-05T14:51:41;16.88;;;8.15;;
38130;SDS011;23947;51.894;4.622;2022-12-05T14:54:02;20.63;;;8.27;;
38130;SDS011;23947;51.894;4.622;2022-12-05T14:56:30;16.63;;;7.72;;
38130;SDS011;23947;51.894;4.622;2022-12-05T14:59:09;17.88;;;7.50;;
38130;SDS011;23947;51.894;4.622;2022-12-05T15:02:10;16.98;;;7.78;;
38130;SDS011;23947;51.894;4.622;2022-12-05T15:04:46;20.75;;;7.50;;
38130;SDS011;23947;51.894;4.622;2022-12-05T15:07:34;18.95;;;8.02;;
38130;SDS011;23947;51.894;4.622;2022-12-05T15:12:45;17.38;;;8.50;;
38130;SDS011;23947;51.894;4.622;2022-12-05T15:15:39;15.77;;;7.03;;
38130;SDS011;23947;51.894;4.622;2022-12-05T15:21:09;20.70;;;8.18;;
38130;SDS011;23947;51.894;4.622;2022-12-05T15:28:56;20.92;;;7.97;;
38130;SDS011;23947;51.894;4.622;2022-12-05T15:31:22;18.83;;;8.25;;
38130;SDS011;23947;51.894;4.622;2022-12-05T15:33:51;14.25;;;6.10;;
38130;SDS011;23947;51.894;4.622;2022-12-05T15:36:22;12.60;;;6.57;;
38130;SDS011;23947;51.894;4.622;2022-12-05T15:38:52;12.07;;;6.28;;
38130;SDS011;23947;51.894;4.622;2022-12-05T15:41:18;15.40;;;6.40;;
38130;SDS011;23947;51.894;4.622;2022-12-05T15:43:53;10.70;;;5.60;;
38130;SDS011;23947;51.894;4.622;2022-12-05T15:48:50;15.25;;;5.60;;
38130;SDS011;23947;51.894;4.622;2022-12-05T15:51:17;10.65;;;5.10;;
38130;SDS011;23947;51.894;4.622;2022-12-05T15:53:59;16.50;;;7.45;;
38130;SDS011;23947;51.894;4.622;2022-12-05T15:56:40;13.38;;;5.82;;
38130;SDS011;23947;51.894;4.622;2022-12-05T16:01:42;11.60;;;5.22;;
38130;SDS011;23947;51.894;4.622;2022-12-05T16:04:13;12.38;;;5.88;;
38130;SDS011;23947;51.894;4.622;2022-12-05T16:06:41;14.82;;;6.32;;
38130;SDS011;23947;51.894;4.622;2022-12-05T16:09:15;13.25;;;5.55;;
38130;SDS011;23947;51.894;4.622;2022-12-05T16:11:51;12.10;;;6.03;;
38130;SDS011;23947;51.894;4.622;2022-12-05T16:14:22;12.95;;;5.85;;
38130;SDS011;23947;51.894;4.622;2022-12-05T16:16:49;10.35;;;5.43;;
38130;SDS011;23947;51.894;4.622;2022-12-05T16:19:23;12.60;;;5.50;;
38130;SDS011;23947;51.894;4.622;2022-12-05T16:25:11;15.65;;;6.55;;
38130;SDS011;23947;51.894;4.622;2022-12-05T16:27:30;12.02;;;5.82;;
38130;SDS011;23947;51.894;4.622;2022-12-05T16:32:36;10.95;;;5.18;;
38130;SDS011;23947;51.894;4.622;2022-12-05T16:35:03;15.80;;;7.55;;
38130;SDS011;23947;51.894;4.622;2022-12-05T16:37:49;14.85;;;7.13;;
38130;SDS011;23947;51.894;4.622;2022-12-05T16:40:21;10.40;;;4.90;;
38130;SDS011;23947;51.894;4.622;2022-12-05T16:42:46;13.85;;;5.15;;
38130;SDS011;23947;51.894;4.622;2022-12-05T16:45:44;15.20;;;5.57;;
38130;SDS011;23947;51.894;4.622;2022-12-05T16:48:15;13.07;;;5.25;;
38130;SDS011;23947;51.894;4.622;2022-12-05T16:50:50;13.70;;;5.03;;
38130;SDS011;23947;51.894;4.622;2022-12-05T16:53:18;10.20;;;4.90;;
38130;SDS011;23947;51.894;4.622;2022-12-05T16:55:56;11.68;;;5.22;;
38130;SDS011;23947;51.894;4.622;2022-12-05T16:58:24;12.85;;;5.28;;
38130;SDS011;23947;51.894;4.622;2022-12-05T17:00:51;13.32;;;5.97;;
38130;SDS011;23947;51.894;4.622;2022-12-05T17:03:22;13.20;;;6.18;;
38130;SDS011;23947;51.894;4.622;2022-12-05T17:05:48;16.83;;;7.03;;
38130;SDS011;23947;51.894;4.622;2022-12-05T17:08:14;15.45;;;6.20;;
38130;SDS011;23947;51.894;4.622;2022-12-05T17:10:40;13.73;;;6.32;;
38130;SDS011;23947;51.894;4.622;2022-12-05T17:13:07;14.45;;;7.55;;
38130;SDS011;23947;51.894;4.622;2022-12-05T17:15:35;14.55;;;6.65;;
38130;SDS011;23947;51.894;4.622;2022-12-05T17:18:00;16.83;;;7.30;;
38130;SDS011;23947;51.894;4.622;2022-12-05T17:20:30;13.95;;;7.38;;
38130;SDS011;23947;51.894;4.622;2022-12-05T17:22:56;18.20;;;7.95;;
38130;SDS011;23947;51.894;4.622;2022-12-05T17:25:26;14.55;;;7.78;;
38130;SDS011;23947;51.894;4.622;2022-12-05T17:28:00;15.57;;;7.80;;